sensor_id;sensor_type;location;lat;lon;timestamp;P1;durP1;ratioP1;P2;durP2;ratioP2
47617;SDS011;33336;36.728;-4.414;2023-03-01T00:02:15;4.07;;;2.85;;
47617;SDS011;33336;36.728;-4.414;2023-03-01T00:07:19;4.15;;;2.50;;
47617;SDS011;33336;36.728;-4.414;2023-03-01T00:12:23;4.28;;;2.20;;
47617;SDS011;33336;36.728;-4.414;2023-03-01T00:17:26;3.88;;;2.28;;
47617;SDS011;33336;36.728;-4.414;2023-03-01T00:22:32;3.25;;;2.22;;
47617;SDS011;33336;36.728;-4.414;2023-03-01T00:27:35;4.65;;;2.08;;
47617;SDS011;33336;36.728;-4.414;2023-03-01T00:32:38;2.78;;;1.95;;
47617;SDS011;33336;36.728;-4.414;2023-03-01T00:37:42;3.83;;;1.55;;
47617;SDS011;33336;36.728;-4.414;2023-03-01T00:42:46;3.20;;;1.80;;
47617;SDS011;33336;36.728;-4.414;2023-03-01T00:47:48;3.13;;;1.95;;
47617;SDS011;33336;36.728;-4.414;2023-03-01T00:52:54;2.50;;;1.40;;
47617;SDS011;33336;36.728;-4.414;2023-03-01T00:57:58;2.00;;;1.08;;
47617;SDS011;33336;36.728;-4.414;2023-03-01T01:03:01;2.78;;;1.85;;
47617;SDS011;33336;36.728;-4.414;2023-03-01T01:08:05;2.38;;;1.70;;
47617;SDS011;33336;36.728;-4.414;2023-03-01T01:13:09;3.72;;;1.80;;
47617;SDS011;33336;36.728;-4.414;2023-03-01T01:18:11;3.25;;;1.92;;
47617;SDS011;33336;36.728;-4.414;2023-03-01T01:23:16;3.08;;;2.08;;
47617;SDS011;33336;36.728;-4.414;2023-03-01T01:28:19;2.92;;;2.05;;
47617;SDS011;33336;36.728;-4.414;2023-03-01T01:33:23;3.70;;;1.55;;
47617;SDS011;33336;36.728;-4.414;2023-03-01T01:38:27;3.53;;;2.10;;
47617;SDS011;33336;36.728;-4.414;2023-03-01T01:43:32;3.03;;;2.08;;
47617;SDS011;33336;36.728;-4.414;2023-03-01T01:48:37;2.50;;;1.92;;
47617;SDS011;33336;36.728;-4.414;2023-03-01T01:53:47;3.05;;;1.90;;
47617;SDS011;33336;36.728;-4.414;2023-03-01T01:58:52;6.75;;;2.47;;
47617;SDS011;33336;36.728;-4.414;2023-03-01T02:03:57;3.00;;;2.03;;
47617;SDS011;33336;36.728;-4.414;2023-03-01T02:09:02;7.63;;;3.10;;
47617;SDS011;33336;36.728;-4.414;2023-03-01T02:14:10;2.95;;;2.10;;
47617;SDS011;33336;36.728;-4.414;2023-03-01T02:19:13;2.30;;;1.55;;
47617;SDS011;33336;36.728;-4.414;2023-03-01T02:24:28;7.57;;;2.40;;
47617;SDS011;33336;36.728;-4.414;2023-03-01T02:29:42;3.10;;;1.90;;
47617;SDS011;33336;36.728;-4.414;2023-03-01T02:34:46;2.47;;;1.75;;
47617;SDS011;33336;36.728;-4.414;2023-03-01T02:39:48;4.65;;;2.10;;
47617;SDS011;33336;36.728;-4.414;2023-03-01T02:44:57;2.40;;;2.15;;
47617;SDS011;33336;36.728;-4.414;2023-03-01T02:50:00;2.83;;;2.05;;
47617;SDS011;33336;36.728;-4.414;2023-03-01T02:55:04;3.25;;;2.08;;
47617;SDS011;33336;36.728;-4.414;2023-03-01T03:00:12;3.50;;;2.15;;
47617;SDS011;33336;36.728;-4.414;2023-03-01T03:05:20;5.88;;;2.13;;
47617;SDS011;33336;36.728;-4.414;2023-03-01T03:10:25;2.78;;;1.70;;
47617;SDS011;33336;36.728;-4.414;2023-03-01T03:15:32;3.28;;;2.65;;
47617;SDS011;33336;36.728;-4.414;2023-03-01T03:20:37;3.17;;;1.92;;
47617;SDS011;33336;36.728;-4.414;2023-03-01T03:25:41;3.42;;;2.17;;
47617;SDS011;33336;36.728;-4.414;2023-03-01T03:30:46;2.28;;;1.73;;
47617;SDS011;33336;36.728;-4.414;2023-03-01T03:35:49;2.38;;;1.83;;
47617;SDS011;33336;36.728;-4.414;2023-03-01T03:40:58;4.20;;;1.75;;
47617;SDS011;33336;36.728;-4.414;2023-03-01T03:46:05;5.25;;;2.70;;
47617;SDS011;33336;36.728;-4.414;2023-03-01T03:51:09;4.47;;;2.50;;
47617;SDS011;33336;36.728;-4.414;2023-03-01T03:56:14;3.83;;;1.77;;
47617;SDS011;33336;36.728;-4.414;2023-03-01T04:01:18;2.67;;;2.13;;
47617;SDS011;33336;36.728;-4.414;2023-03-01T04:06:22;2.85;;;2.10;;
47617;SDS011;33336;36.728;-4.414;2023-03-01T04:11:25;2.25;;;1.80;;
47617;SDS011;33336;36.728;-4.414;2023-03-01T04:16:30;3.45;;;1.73;;
47617;SDS011;33336;36.728;-4.414;2023-03-01T04:21:33;2.42;;;1.85;;
47617;SDS011;33336;36.728;-4.414;2023-03-01T04:26:36;4.78;;;1.83;;
47617;SDS011;33336;36.728;-4.414;2023-03-01T04:31:41;2.80;;;1.58;;
47617;SDS011;33336;36.728;-4.414;2023-03-01T04:36:43;2.22;;;1.77;;
47617;SDS011;33336;36.728;-4.414;2023-03-01T04:41:46;5.07;;;1.83;;
47617;SDS011;33336;36.728;-4.414;2023-03-01T04:46:51;3.83;;;1.70;;
47617;SDS011;33336;36.728;-4.414;2023-03-01T04:51:54;3.67;;;1.95;;
47617;SDS011;33336;36.728;-4.414;2023-03-01T04:57:00;4.82;;;1.95;;
47617;SDS011;33336;36.728;-4.414;2023-03-01T05:02:04;2.45;;;1.70;;
47617;SDS011;33336;36.728;-4.414;2023-03-01T05:07:07;2.75;;;1.50;;
47617;SDS011;33336;36.728;-4.414;2023-03-01T05:12:10;3.40;;;2.00;;
47617;SDS011;33336;36.728;-4.414;2023-03-01T05:17:15;3.30;;;1.88;;
47617;SDS011;33336;36.728;-4.414;2023-03-01T05:22:18;4.85;;;1.95;;
47617;SDS011;33336;36.728;-4.414;2023-03-01T05:27:20;3.72;;;2.30;;
47617;SDS011;33336;36.728;-4.414;2023-03-01T05:32:25;3.03;;;2.10;;
47617;SDS011;33336;36.728;-4.414;2023-03-01T05:37:28;2.83;;;1.90;;
47617;SDS011;33336;36.728;-4.414;2023-03-01T05:42:31;2.92;;;1.98;;
47617;SDS011;33336;36.728;-4.414;2023-03-01T05:47:36;3.10;;;2.10;;
47617;SDS011;33336;36.728;-4.414;2023-03-01T05:52:39;7.45;;;2.17;;
47617;SDS011;33336;36.728;-4.414;2023-03-01T05:57:42;2.65;;;1.50;;
47617;SDS011;33336;36.728;-4.414;2023-03-01T06:02:47;4.95;;;2.05;;
47617;SDS011;33336;36.728;-4.414;2023-03-01T06:07:51;3.88;;;1.73;;
47617;SDS011;33336;36.728;-4.414;2023-03-01T06:12:54;7.57;;;2.05;;
47617;SDS011;33336;36.728;-4.414;2023-03-01T06:17:58;3.20;;;1.58;;
47617;SDS011;33336;36.728;-4.414;2023-03-01T06:23:01;5.45;;;1.98;;
47617;SDS011;33336;36.728;-4.414;2023-03-01T06:28:04;4.47;;;1.90;;
47617;SDS011;33336;36.728;-4.414;2023-03-01T06:33:09;4.18;;;1.65;;
47617;SDS011;33336;36.728;-4.414;2023-03-01T06:38:12;2.85;;;1.90;;
47617;SDS011;33336;36.728;-4.414;2023-03-01T06:43:18;4.03;;;1.60;;
47617;SDS011;33336;36.728;-4.414;2023-03-01T06:48:23;5.68;;;1.83;;
47617;SDS011;33336;36.728;-4.414;2023-03-01T06:53:26;6.22;;;2.30;;
47617;SDS011;33336;36.728;-4.414;2023-03-01T06:58:29;3.58;;;1.65;;
47617;SDS011;33336;36.728;-4.414;2023-03-01T07:03:34;4.32;;;2.17;;
47617;SDS011;33336;36.728;-4.414;2023-03-01T07:08:37;5.47;;;1.90;;
47617;SDS011;33336;36.728;-4.414;2023-03-01T07:13:40;4.90;;;2.10;;
47617;SDS011;33336;36.728;-4.414;2023-03-01T07:18:45;3.60;;;1.92;;
47617;SDS011;33336;36.728;-4.414;2023-03-01T07:23:48;5.10;;;2.10;;
47617;SDS011;33336;36.728;-4.414;2023-03-01T07:28:50;6.70;;;1.80;;
47617;SDS011;33336;36.728;-4.414;2023-03-01T07:33:55;3.83;;;1.50;;
47617;SDS011;33336;36.728;-4.414;2023-03-01T07:38:58;5.50;;;2.15;;
47617;SDS011;33336;36.728;-4.414;2023-03-01T07:44:03;6.47;;;1.92;;
47617;SDS011;33336;36.728;-4.414;2023-03-01T07:49:07;7.85;;;2.38;;
47617;SDS011;33336;36.728;-4.414;2023-03-01T07:54:10;5.40;;;2.22;;
47617;SDS011;33336;36.728;-4.414;2023-03-01T07:59:14;4.70;;;2.00;;
47617;SDS011;33336;36.728;-4.414;2023-03-01T08:04:19;6.78;;;2.03;;
47617;SDS011;33336;36.728;-4.414;2023-03-01T08:09:22;8.10;;;2.35;;
47617;SDS011;33336;36.728;-4.414;2023-03-01T08:14:26;6.05;;;2.05;;
47617;SDS011;33336;36.728;-4.414;2023-03-01T08:19:31;8.40;;;3.55;;
47617;SDS011;33336;36.728;-4.414;2023-03-01T08:24:36;4.38;;;1.90;;
47617;SDS011;33336;36.728;-4.414;2023-03-01T08:29:39;6.05;;;2.08;;
47617;SDS011;33336;36.728;-4.414;2023-03-01T08:34:43;7.43;;;2.28;;
47617;SDS011;33336;36.728;-4.414;2023-03-01T08:39:48;3.58;;;2.00;;
47617;SDS011;33336;36.728;-4.414;2023-03-01T08:44:51;8.55;;;2.13;;
47617;SDS011;33336;36.728;-4.414;2023-03-01T08:49:56;5.97;;;2.50;;
47617;SDS011;33336;36.728;-4.414;2023-03-01T08:54:59;7.55;;;2.10;;
47617;SDS011;33336;36.728;-4.414;2023-03-01T09:00:04;5.35;;;2.33;;
47617;SDS011;33336;36.728;-4.414;2023-03-01T09:05:11;22.70;;;4.18;;
47617;SDS011;33336;36.728;-4.414;2023-03-01T09:10:15;12.75;;;4.28;;
47617;SDS011;33336;36.728;-4.414;2023-03-01T09:15:18;9.82;;;3.88;;
47617;SDS011;33336;36.728;-4.414;2023-03-01T09:20:23;13.27;;;4.47;;
47617;SDS011;33336;36.728;-4.414;2023-03-01T09:25:26;8.95;;;3.95;;
47617;SDS011;33336;36.728;-4.414;2023-03-01T09:30:28;10.73;;;3.47;;
47617;SDS011;33336;36.728;-4.414;2023-03-01T09:35:33;14.68;;;3.35;;
47617;SDS011;33336;36.728;-4.414;2023-03-01T09:40:41;9.60;;;3.08;;
47617;SDS011;33336;36.728;-4.414;2023-03-01T09:45:46;10.73;;;3.63;;
47617;SDS011;33336;36.728;-4.414;2023-03-01T09:50:54;11.20;;;2.88;;
47617;SDS011;33336;36.728;-4.414;2023-03-01T09:55:59;5.72;;;1.52;;
47617;SDS011;33336;36.728;-4.414;2023-03-01T10:01:10;5.03;;;1.55;;
47617;SDS011;33336;36.728;-4.414;2023-03-01T10:06:26;5.25;;;1.92;;
47617;SDS011;33336;36.728;-4.414;2023-03-01T10:11:31;3.83;;;1.23;;
47617;SDS011;33336;36.728;-4.414;2023-03-01T10:21:47;3.95;;;1.77;;
47617;SDS011;33336;36.728;-4.414;2023-03-01T10:26:53;3.38;;;1.90;;
47617;SDS011;33336;36.728;-4.414;2023-03-01T10:31:58;12.77;;;2.75;;
47617;SDS011;33336;36.728;-4.414;2023-03-01T10:37:09;3.60;;;2.05;;
47617;SDS011;33336;36.728;-4.414;2023-03-01T10:42:19;5.45;;;1.80;;
47617;SDS011;33336;36.728;-4.414;2023-03-01T10:47:27;4.97;;;1.60;;
47617;SDS011;33336;36.728;-4.414;2023-03-01T10:52:33;5.57;;;1.40;;
47617;SDS011;33336;36.728;-4.414;2023-03-01T10:57:42;2.40;;;1.05;;
47617;SDS011;33336;36.728;-4.414;2023-03-01T11:02:50;6.90;;;1.35;;
47617;SDS011;33336;36.728;-4.414;2023-03-01T11:08:06;4.15;;;1.02;;
47617;SDS011;33336;36.728;-4.414;2023-03-01T11:13:14;4.55;;;1.30;;
47617;SDS011;33336;36.728;-4.414;2023-03-01T11:18:19;8.30;;;1.42;;
47617;SDS011;33336;36.728;-4.414;2023-03-01T11:23:25;1.48;;;1.10;;
47617;SDS011;33336;36.728;-4.414;2023-03-01T11:28:29;4.40;;;1.40;;
47617;SDS011;33336;36.728;-4.414;2023-03-01T11:33:35;4.43;;;1.63;;
47617;SDS011;33336;36.728;-4.414;2023-03-01T11:38:44;4.25;;;1.42;;
47617;SDS011;33336;36.728;-4.414;2023-03-01T11:43:49;2.88;;;1.35;;
47617;SDS011;33336;36.728;-4.414;2023-03-01T11:48:57;3.25;;;1.08;;
47617;SDS011;33336;36.728;-4.414;2023-03-01T11:54:15;3.45;;;1.30;;
47617;SDS011;33336;36.728;-4.414;2023-03-01T11:59:44;5.22;;;2.05;;
47617;SDS011;33336;36.728;-4.414;2023-03-01T12:05:15;3.55;;;1.23;;
47617;SDS011;33336;36.728;-4.414;2023-03-01T12:10:32;7.70;;;1.80;;
47617;SDS011;33336;36.728;-4.414;2023-03-01T12:21:12;5.82;;;1.25;;
47617;SDS011;33336;36.728;-4.414;2023-03-01T12:26:27;4.80;;;1.40;;
47617;SDS011;33336;36.728;-4.414;2023-03-01T12:31:37;5.47;;;1.70;;
47617;SDS011;33336;36.728;-4.414;2023-03-01T12:37:14;4.78;;;1.50;;
47617;SDS011;33336;36.728;-4.414;2023-03-01T12:42:29;5.35;;;1.23;;
47617;SDS011;33336;36.728;-4.414;2023-03-01T12:47:49;6.68;;;1.63;;
47617;SDS011;33336;36.728;-4.414;2023-03-01T12:53:00;4.75;;;1.50;;
47617;SDS011;33336;36.728;-4.414;2023-03-01T12:58:07;5.63;;;2.03;;
47617;SDS011;33336;36.728;-4.414;2023-03-01T13:03:25;11.15;;;2.03;;
47617;SDS011;33336;36.728;-4.414;2023-03-01T13:08:36;7.88;;;1.60;;
47617;SDS011;33336;36.728;-4.414;2023-03-01T13:13:46;5.90;;;2.00;;
47617;SDS011;33336;36.728;-4.414;2023-03-01T13:18:49;5.15;;;1.73;;
47617;SDS011;33336;36.728;-4.414;2023-03-01T13:29:27;5.80;;;1.73;;
47617;SDS011;33336;36.728;-4.414;2023-03-01T13:34:41;7.40;;;1.73;;
47617;SDS011;33336;36.728;-4.414;2023-03-01T13:39:55;2.83;;;1.60;;
47617;SDS011;33336;36.728;-4.414;2023-03-01T13:45:00;8.38;;;2.20;;
47617;SDS011;33336;36.728;-4.414;2023-03-01T13:50:04;3.25;;;1.27;;
47617;SDS011;33336;36.728;-4.414;2023-03-01T13:55:15;8.57;;;1.90;;
47617;SDS011;33336;36.728;-4.414;2023-03-01T14:00:27;5.00;;;1.40;;
47617;SDS011;33336;36.728;-4.414;2023-03-01T14:05:35;6.60;;;1.00;;
47617;SDS011;33336;36.728;-4.414;2023-03-01T14:10:40;4.43;;;1.30;;
47617;SDS011;33336;36.728;-4.414;2023-03-01T14:16:12;7.90;;;1.65;;
47617;SDS011;33336;36.728;-4.414;2023-03-01T14:21:25;4.80;;;1.48;;
47617;SDS011;33336;36.728;-4.414;2023-03-01T14:26:28;5.47;;;1.52;;
47617;SDS011;33336;36.728;-4.414;2023-03-01T14:31:38;7.10;;;1.95;;
47617;SDS011;33336;36.728;-4.414;2023-03-01T14:36:42;9.50;;;2.00;;
47617;SDS011;33336;36.728;-4.414;2023-03-01T14:41:46;6.63;;;1.60;;
47617;SDS011;33336;36.728;-4.414;2023-03-01T14:46:53;3.10;;;1.52;;
47617;SDS011;33336;36.728;-4.414;2023-03-01T14:51:59;6.45;;;2.08;;
47617;SDS011;33336;36.728;-4.414;2023-03-01T14:57:03;8.60;;;1.90;;
47617;SDS011;33336;36.728;-4.414;2023-03-01T15:02:10;3.83;;;1.98;;
47617;SDS011;33336;36.728;-4.414;2023-03-01T15:07:17;3.17;;;1.38;;
47617;SDS011;33336;36.728;-4.414;2023-03-01T15:12:33;3.50;;;1.83;;
47617;SDS011;33336;36.728;-4.414;2023-03-01T15:17:39;4.32;;;1.58;;
47617;SDS011;33336;36.728;-4.414;2023-03-01T15:22:43;2.50;;;1.50;;
47617;SDS011;33336;36.728;-4.414;2023-03-01T15:38:33;2.08;;;1.40;;
47617;SDS011;33336;36.728;-4.414;2023-03-01T15:43:41;2.25;;;1.23;;
47617;SDS011;33336;36.728;-4.414;2023-03-01T15:53:53;4.70;;;1.73;;
47617;SDS011;33336;36.728;-4.414;2023-03-01T15:59:00;6.18;;;1.35;;
47617;SDS011;33336;36.728;-4.414;2023-03-01T16:04:06;4.55;;;1.83;;
47617;SDS011;33336;36.728;-4.414;2023-03-01T16:09:08;4.18;;;1.60;;
47617;SDS011;33336;36.728;-4.414;2023-03-01T16:14:14;2.53;;;1.65;;
47617;SDS011;33336;36.728;-4.414;2023-03-01T16:19:19;2.63;;;1.55;;
47617;SDS011;33336;36.728;-4.414;2023-03-01T16:24:22;5.53;;;2.15;;
47617;SDS011;33336;36.728;-4.414;2023-03-01T16:29:26;2.45;;;1.30;;
47617;SDS011;33336;36.728;-4.414;2023-03-01T16:34:32;2.05;;;1.50;;
47617;SDS011;33336;36.728;-4.414;2023-03-01T16:39:35;5.57;;;1.38;;
47617;SDS011;33336;36.728;-4.414;2023-03-01T16:44:40;3.33;;;1.17;;
47617;SDS011;33336;36.728;-4.414;2023-03-01T16:49:44;4.10;;;1.70;;
47617;SDS011;33336;36.728;-4.414;2023-03-01T16:54:48;4.97;;;1.95;;
47617;SDS011;33336;36.728;-4.414;2023-03-01T16:59:51;2.90;;;1.13;;
47617;SDS011;33336;36.728;-4.414;2023-03-01T17:04:56;2.30;;;1.08;;
47617;SDS011;33336;36.728;-4.414;2023-03-01T17:09:59;3.75;;;0.90;;
47617;SDS011;33336;36.728;-4.414;2023-03-01T17:15:04;5.15;;;1.02;;
47617;SDS011;33336;36.728;-4.414;2023-03-01T17:20:10;6.93;;;1.40;;
47617;SDS011;33336;36.728;-4.414;2023-03-01T17:25:13;1.73;;;0.90;;
47617;SDS011;33336;36.728;-4.414;2023-03-01T17:30:16;4.40;;;1.00;;
47617;SDS011;33336;36.728;-4.414;2023-03-01T17:35:22;3.20;;;0.93;;
47617;SDS011;33336;36.728;-4.414;2023-03-01T17:40:25;2.92;;;1.17;;
47617;SDS011;33336;36.728;-4.414;2023-03-01T17:45:28;1.88;;;1.35;;
47617;SDS011;33336;36.728;-4.414;2023-03-01T17:50:32;1.92;;;1.00;;
47617;SDS011;33336;36.728;-4.414;2023-03-01T17:55:39;2.90;;;0.80;;
47617;SDS011;33336;36.728;-4.414;2023-03-01T18:00:43;4.50;;;1.55;;
47617;SDS011;33336;36.728;-4.414;2023-03-01T18:05:47;2.22;;;0.93;;
47617;SDS011;33336;36.728;-4.414;2023-03-01T18:10:56;2.75;;;1.17;;
47617;SDS011;33336;36.728;-4.414;2023-03-01T18:16:03;3.63;;;1.25;;
47617;SDS011;33336;36.728;-4.414;2023-03-01T18:21:08;2.35;;;1.00;;
47617;SDS011;33336;36.728;-4.414;2023-03-01T18:26:12;3.42;;;1.50;;
47617;SDS011;33336;36.728;-4.414;2023-03-01T18:31:17;3.22;;;1.77;;
47617;SDS011;33336;36.728;-4.414;2023-03-01T18:36:24;6.43;;;1.40;;
47617;SDS011;33336;36.728;-4.414;2023-03-01T18:41:29;1.67;;;0.98;;
47617;SDS011;33336;36.728;-4.414;2023-03-01T18:46:33;3.72;;;1.40;;
47617;SDS011;33336;36.728;-4.414;2023-03-01T18:51:40;2.03;;;0.60;;
47617;SDS011;33336;36.728;-4.414;2023-03-01T18:56:44;6.55;;;1.40;;
47617;SDS011;33336;36.728;-4.414;2023-03-01T19:01:47;3.28;;;1.20;;
47617;SDS011;33336;36.728;-4.414;2023-03-01T19:06:51;1.85;;;1.00;;
47617;SDS011;33336;36.728;-4.414;2023-03-01T19:11:54;7.03;;;1.50;;
47617;SDS011;33336;36.728;-4.414;2023-03-01T19:17:01;2.50;;;1.13;;
47617;SDS011;33336;36.728;-4.414;2023-03-01T19:22:05;2.47;;;1.00;;
47617;SDS011;33336;36.728;-4.414;2023-03-01T19:27:09;2.63;;;1.65;;
47617;SDS011;33336;36.728;-4.414;2023-03-01T19:32:12;3.97;;;1.25;;
47617;SDS011;33336;36.728;-4.414;2023-03-01T19:37:16;5.13;;;1.50;;
47617;SDS011;33336;36.728;-4.414;2023-03-01T19:42:19;2.78;;;1.50;;
47617;SDS011;33336;36.728;-4.414;2023-03-01T19:47:26;5.53;;;1.15;;
47617;SDS011;33336;36.728;-4.414;2023-03-01T19:52:30;2.67;;;1.13;;
47617;SDS011;33336;36.728;-4.414;2023-03-01T19:57:34;5.00;;;1.50;;
47617;SDS011;33336;36.728;-4.414;2023-03-01T20:02:37;2.92;;;1.30;;
47617;SDS011;33336;36.728;-4.414;2023-03-01T20:07:42;1.58;;;1.27;;
47617;SDS011;33336;36.728;-4.414;2023-03-01T20:12:44;2.22;;;0.93;;
47617;SDS011;33336;36.728;-4.414;2023-03-01T20:17:50;5.60;;;1.23;;
47617;SDS011;33336;36.728;-4.414;2023-03-01T20:22:54;3.60;;;1.42;;
47617;SDS011;33336;36.728;-4.414;2023-03-01T20:28:00;3.58;;;1.08;;
47617;SDS011;33336;36.728;-4.414;2023-03-01T20:33:03;6.13;;;1.25;;
47617;SDS011;33336;36.728;-4.414;2023-03-01T20:38:07;1.63;;;1.10;;
47617;SDS011;33336;36.728;-4.414;2023-03-01T20:43:10;2.58;;;1.30;;
47617;SDS011;33336;36.728;-4.414;2023-03-01T20:48:14;2.35;;;1.13;;
47617;SDS011;33336;36.728;-4.414;2023-03-01T20:53:18;6.00;;;1.63;;
47617;SDS011;33336;36.728;-4.414;2023-03-01T20:58:22;4.30;;;2.10;;
47617;SDS011;33336;36.728;-4.414;2023-03-01T21:03:27;3.85;;;1.20;;
47617;SDS011;33336;36.728;-4.414;2023-03-01T21:08:33;4.18;;;1.50;;
47617;SDS011;33336;36.728;-4.414;2023-03-01T21:13:36;5.70;;;1.33;;
47617;SDS011;33336;36.728;-4.414;2023-03-01T21:18:39;3.40;;;1.30;;
47617;SDS011;33336;36.728;-4.414;2023-03-01T21:23:47;4.15;;;1.67;;
47617;SDS011;33336;36.728;-4.414;2023-03-01T21:28:53;3.38;;;1.50;;
47617;SDS011;33336;36.728;-4.414;2023-03-01T21:33:57;3.45;;;1.27;;
47617;SDS011;33336;36.728;-4.414;2023-03-01T21:39:04;2.67;;;1.52;;
47617;SDS011;33336;36.728;-4.414;2023-03-01T21:44:08;17.25;;;2.65;;
47617;SDS011;33336;36.728;-4.414;2023-03-01T21:49:11;3.67;;;1.98;;
47617;SDS011;33336;36.728;-4.414;2023-03-01T21:54:18;6.75;;;1.85;;
47617;SDS011;33336;36.728;-4.414;2023-03-01T21:59:25;5.10;;;1.98;;
47617;SDS011;33336;36.728;-4.414;2023-03-01T22:04:28;7.05;;;2.10;;
47617;SDS011;33336;36.728;-4.414;2023-03-01T22:09:33;5.88;;;1.92;;
47617;SDS011;33336;36.728;-4.414;2023-03-01T22:14:38;2.45;;;1.80;;
47617;SDS011;33336;36.728;-4.414;2023-03-01T22:19:44;3.95;;;1.92;;
47617;SDS011;33336;36.728;-4.414;2023-03-01T22:24:48;6.18;;;1.90;;
47617;SDS011;33336;36.728;-4.414;2023-03-01T22:29:52;2.85;;;1.20;;
47617;SDS011;33336;36.728;-4.414;2023-03-01T22:34:55;2.50;;;1.42;;
47617;SDS011;33336;36.728;-4.414;2023-03-01T22:39:59;3.83;;;1.85;;
47617;SDS011;33336;36.728;-4.414;2023-03-01T22:45:02;6.05;;;1.63;;
47617;SDS011;33336;36.728;-4.414;2023-03-01T22:50:07;2.35;;;1.23;;
47617;SDS011;33336;36.728;-4.414;2023-03-01T22:55:15;6.00;;;1.90;;
47617;SDS011;33336;36.728;-4.414;2023-03-01T23:00:19;3.28;;;1.75;;
47617;SDS011;33336;36.728;-4.414;2023-03-01T23:05:24;8.73;;;3.10;;
47617;SDS011;33336;36.728;-4.414;2023-03-01T23:10:29;2.17;;;1.60;;
47617;SDS011;33336;36.728;-4.414;2023-03-01T23:15:32;3.92;;;1.95;;
47617;SDS011;33336;36.728;-4.414;2023-03-01T23:20:37;5.70;;;1.80;;
47617;SDS011;33336;36.728;-4.414;2023-03-01T23:26:02;8.75;;;1.65;;
47617;SDS011;33336;36.728;-4.414;2023-03-01T23:31:06;2.50;;;1.95;;
47617;SDS011;33336;36.728;-4.414;2023-03-01T23:36:14;4.22;;;1.95;;
47617;SDS011;33336;36.728;-4.414;2023-03-01T23:41:22;4.07;;;1.60;;
47617;SDS011;33336;36.728;-4.414;2023-03-01T23:46:27;8.90;;;1.83;;
47617;SDS011;33336;36.728;-4.414;2023-03-01T23:51:32;4.20;;;1.70;;
47617;SDS011;33336;36.728;-4.414;2023-03-01T23:56:37;4.97;;;1.80;;
